Time;durP1;ratioP1;P1;durP2;ratioP2;P2;SDS_P1;SDS_P2;PMS_P1;PMS_P2;Temp;Humidity;BMP_temperature;BMP_pressure;BME280_temperature;BME280_humidity;BME280_pressure;Samples;Min_cycle;Max_cycle;Signal;HPM_P1;HPM_P2
2022/05/08 04:02:15;;;;;;;21.15;4.78;;;6.80;99.90;;;;;;5162943;23;20051;-83
2022/05/08 04:04:40;;;;;;;24.15;5.00;;;6.80;99.90;;;;;;4913291;29;20048;-82
2022/05/08 04:07:06;;;;;;;18.85;5.32;;;6.80;99.90;;;;;;4900238;29;20040;-82
2022/05/08 04:09:31;;;;;;;21.25;4.55;;;6.80;99.90;;;;;;4917529;29;20094;-82
2022/05/08 04:11:57;;;;;;;22.45;5.50;;;6.80;99.90;;;;;;4900036;29;20116;-82
2022/05/08 04:14:23;;;;;;;17.13;4.85;;;6.70;99.90;;;;;;4900059;29;20052;-83
2022/05/08 04:16:49;;;;;;;20.48;5.63;;;6.70;99.90;;;;;;4899817;29;20131;-82
2022/05/08 04:19:15;;;;;;;14.85;4.78;;;6.70;99.90;;;;;;4901980;29;20464;-82
2022/05/08 04:21:41;;;;;;;16.83;4.10;;;6.70;99.90;;;;;;4920385;29;20389;-81
2022/05/08 04:24:19;;;;;;;14.63;3.72;;;6.70;99.90;;;;;;4903087;29;20048;-83
2022/05/08 04:26:45;;;;;;;10.55;3.92;;;6.60;99.90;;;;;;4903294;29;20071;-82
2022/05/08 04:29:11;;;;;;;15.63;4.50;;;6.60;99.90;;;;;;4902926;29;20092;-82
2022/05/08 04:31:37;;;;;;;17.30;4.60;;;6.60;99.90;;;;;;4902952;29;20040;-81
2022/05/08 04:34:03;;;;;;;14.75;4.65;;;6.60;99.90;;;;;;4903683;29;20044;-82
2022/05/08 04:36:29;;;;;;;13.13;4.43;;;6.60;99.90;;;;;;4903019;29;20047;-82
2022/05/08 04:38:54;;;;;;;19.50;5.50;;;6.60;99.90;;;;;;4902493;29;20108;-80
2022/05/08 04:41:21;;;;;;;15.27;4.95;;;6.60;99.90;;;;;;4903252;29;20450;-81
2022/05/08 04:43:47;;;;;;;17.88;5.30;;;6.70;99.90;;;;;;4902884;29;20047;-81
2022/05/08 04:46:12;;;;;;;16.60;4.68;;;6.70;99.90;;;;;;4919910;29;20040;-82
2022/05/08 04:48:39;;;;;;;11.02;4.32;;;6.70;99.90;;;;;;4905057;29;20127;-79
2022/05/08 04:51:04;;;;;;;9.32;3.80;;;6.80;99.90;;;;;;4912245;29;20064;-80
2022/05/08 04:53:30;;;;;;;14.90;3.92;;;6.80;99.90;;;;;;4910190;29;20071;-82
2022/05/08 04:55:57;;;;;;;9.90;3.63;;;6.80;99.90;;;;;;4902619;29;20048;-82
2022/05/08 04:58:23;;;;;;;13.77;4.15;;;6.90;99.90;;;;;;4902656;29;20123;-82
2022/05/08 05:00:48;;;;;;;14.60;4.00;;;6.90;99.90;;;;;;4915182;29;20040;-79
2022/05/08 05:03:14;;;;;;;17.23;5.03;;;7.00;99.90;;;;;;4937010;29;20148;-81
2022/05/08 05:05:40;;;;;;;19.75;6.13;;;7.00;99.90;;;;;;4907978;29;20104;-81
2022/05/08 05:08:06;;;;;;;19.15;4.70;;;7.00;99.90;;;;;;4907171;29;20036;-84
2022/05/08 05:10:32;;;;;;;16.42;4.40;;;7.00;99.90;;;;;;4927439;29;20066;-82
2022/05/08 05:12:58;;;;;;;16.63;5.03;;;7.10;99.90;;;;;;4904492;29;20044;-82
2022/05/08 05:15:24;;;;;;;13.73;4.28;;;7.10;99.90;;;;;;4902406;29;20131;-82
2022/05/08 05:17:52;;;;;;;20.52;4.43;;;7.10;99.90;;;;;;4919479;29;20088;-83
2022/05/08 05:20:17;;;;;;;12.18;4.70;;;7.20;99.90;;;;;;4902181;29;20051;-83
2022/05/08 05:22:43;;;;;;;19.63;4.50;;;7.20;99.90;;;;;;4901873;29;20052;-82
2022/05/08 05:25:09;;;;;;;10.32;3.40;;;7.30;99.90;;;;;;4918686;29;20076;-82
2022/05/08 05:27:34;;;;;;;13.85;3.83;;;7.40;99.90;;;;;;4901569;29;20051;-82
2022/05/08 05:30:03;;;;;;;14.38;4.38;;;7.50;99.90;;;;;;4901137;29;20054;-83
2022/05/08 05:32:29;;;;;;;17.13;4.05;;;7.50;99.90;;;;;;4886166;29;20036;-83
2022/05/08 05:34:54;;;;;;;11.85;3.85;;;7.60;99.90;;;;;;4918321;29;20040;-83
2022/05/08 05:37:20;;;;;;;11.05;3.20;;;7.70;99.90;;;;;;4918619;29;20096;-82
2022/05/08 05:39:46;;;;;;;15.68;3.45;;;7.70;99.90;;;;;;4885757;29;20040;-82
2022/05/08 05:42:12;;;;;;;13.88;3.58;;;7.80;99.90;;;;;;4900904;29;20104;-82
2022/05/08 05:44:38;;;;;;;13.65;4.40;;;7.70;99.90;;;;;;4901945;29;20044;-83
2022/05/08 05:49:49;;;;;;;13.60;3.80;;;7.90;99.90;;;;;;4901422;29;20055;-83
2022/05/08 05:52:14;;;;;;;9.25;3.30;;;7.90;99.90;;;;;;4901445;29;20082;-84
2022/05/08 05:54:40;;;;;;;20.05;3.90;;;7.90;99.90;;;;;;4901312;29;20075;-83
2022/05/08 05:57:06;;;;;;;10.43;3.63;;;8.00;99.90;;;;;;4901456;29;20040;-83
2022/05/08 05:59:31;;;;;;;15.45;3.67;;;8.00;99.90;;;;;;4901237;29;20543;-83
2022/05/08 06:01:57;;;;;;;10.80;2.75;;;8.10;99.90;;;;;;4918025;29;20048;-83
2022/05/08 06:04:22;;;;;;;16.48;4.10;;;8.10;99.90;;;;;;4901249;29;20047;-82
2022/05/08 06:06:48;;;;;;;17.15;5.05;;;8.20;99.90;;;;;;4918428;29;20040;-83
2022/05/08 06:09:14;;;;;;;14.57;3.42;;;8.20;99.90;;;;;;4918304;29;20039;-82
2022/05/08 06:11:39;;;;;;;11.02;2.85;;;8.30;99.90;;;;;;4901300;29;20054;-83
2022/05/08 06:14:05;;;;;;;10.90;2.92;;;8.30;99.90;;;;;;4918066;29;20043;-83
2022/05/08 06:16:31;;;;;;;11.40;2.50;;;8.30;99.90;;;;;;4918210;29;20381;-82
2022/05/08 06:19:01;;;;;;;10.23;2.60;;;8.40;99.90;;;;;;4901288;29;20436;-84
2022/05/08 06:21:27;;;;;;;11.45;3.28;;;8.40;99.90;;;;;;4901053;29;20043;-83
2022/05/08 06:23:54;;;;;;;7.53;2.63;;;8.50;99.90;;;;;;4900825;29;20044;-83
2022/05/08 06:26:20;;;;;;;11.75;2.38;;;8.50;99.90;;;;;;4918107;29;20155;-84
2022/05/08 06:28:45;;;;;;;8.65;2.35;;;8.60;99.90;;;;;;4917795;29;20051;-84
2022/05/08 06:31:15;;;;;;;12.23;2.75;;;8.60;99.90;;;;;;4885426;29;20044;-84
2022/05/08 06:33:42;;;;;;;9.90;2.60;;;8.70;99.90;;;;;;4917868;29;20071;-83
2022/05/08 06:36:08;;;;;;;7.70;2.55;;;8.70;99.90;;;;;;4900978;29;20052;-82
2022/05/08 06:38:34;;;;;;;10.00;2.72;;;8.70;99.90;;;;;;4917665;29;20048;-83
2022/05/08 06:41:01;;;;;;;12.52;2.85;;;8.80;99.90;;;;;;4900602;29;20404;-84
2022/05/08 06:43:26;;;;;;;8.32;2.50;;;8.90;99.90;;;;;;4884384;29;20056;-83
2022/05/08 06:45:52;;;;;;;10.65;3.28;;;8.90;99.90;;;;;;4901514;29;20044;-83
2022/05/08 06:48:17;;;;;;;7.47;2.22;;;9.00;99.90;;;;;;4900632;29;20044;-84
2022/05/08 06:50:44;;;;;;;11.40;2.85;;;9.10;99.90;;;;;;4900438;29;20489;-82
2022/05/08 06:53:10;;;;;;;10.93;2.85;;;9.10;99.90;;;;;;4901110;29;20505;-82
2022/05/08 06:55:35;;;;;;;12.73;2.55;;;9.20;99.90;;;;;;4917428;29;20075;-84
2022/05/08 06:58:02;;;;;;;11.93;2.20;;;9.30;99.90;;;;;;4900657;29;20046;-82
2022/05/08 07:03:12;;;;;;;12.23;2.38;;;9.40;99.90;;;;;;4900481;29;20052;-82
2022/05/08 07:05:45;;;;;;;6.97;2.20;;;9.50;99.90;;;;;;4917616;29;20128;-83
2022/05/08 07:08:10;;;;;;;9.52;2.03;;;9.50;99.90;;;;;;4900251;29;20059;-84
2022/05/08 07:10:36;;;;;;;10.73;2.10;;;9.60;99.90;;;;;;4900688;29;20127;-83
2022/05/08 07:13:02;;;;;;;9.80;2.40;;;9.70;99.90;;;;;;4900489;29;20080;-83
2022/05/08 07:15:27;;;;;;;7.93;2.00;;;9.80;99.90;;;;;;4917558;29;20043;-86
2022/05/08 07:17:53;;;;;;;11.02;2.20;;;9.90;99.90;;;;;;4917246;29;20040;-84
2022/05/08 07:20:18;;;;;;;9.95;1.77;;;10.00;99.90;;;;;;4884913;29;20397;-85
2022/05/08 07:22:44;;;;;;;7.15;1.48;;;10.00;99.90;;;;;;4900243;29;20139;-84
2022/05/08 07:25:12;;;;;;;10.68;2.20;;;10.10;99.90;;;;;;4900318;29;20051;-84
2022/05/08 07:27:39;;;;;;;7.32;1.80;;;10.20;99.90;;;;;;4900200;29;20416;-86
2022/05/08 07:30:06;;;;;;;10.52;2.35;;;10.30;99.90;;;;;;4900116;29;20377;-84
2022/05/08 07:32:35;;;;;;;8.52;1.90;;;10.30;99.90;;;;;;4884374;29;20428;-84
2022/05/08 07:37:46;;;;;;;10.37;1.90;;;10.50;99.90;;;;;;4901320;29;20131;-81
2022/05/08 07:40:12;;;;;;;9.13;2.10;;;10.50;99.90;;;;;;4900459;29;20135;-81
2022/05/08 07:42:38;;;;;;;9.15;2.15;;;10.60;99.90;;;;;;4917366;29;20075;-83
2022/05/08 07:45:05;;;;;;;10.80;2.10;;;10.60;99.90;;;;;;4917284;29;20460;-83
2022/05/08 07:47:31;;;;;;;10.73;1.67;;;10.60;99.90;;;;;;4900341;29;20369;-84
2022/05/08 07:49:57;;;;;;;8.77;1.80;;;10.60;99.90;;;;;;4884870;29;20036;-84
2022/05/08 07:52:22;;;;;;;6.60;2.38;;;10.50;99.90;;;;;;4900353;29;20540;-83
2022/05/08 07:54:48;;;;;;;6.70;1.95;;;10.50;99.90;;;;;;4903372;29;20059;-84
2022/05/08 07:57:14;;;;;;;11.52;2.05;;;10.50;99.90;;;;;;4920645;29;20039;-83
2022/05/08 07:59:39;;;;;;;7.10;2.00;;;10.40;99.90;;;;;;4904123;29;20040;-81
2022/05/08 08:02:05;;;;;;;9.40;2.15;;;10.50;99.90;;;;;;4903634;29;20512;-83
2022/05/08 08:04:31;;;;;;;8.00;2.10;;;10.70;99.90;;;;;;4903469;29;20079;-83
2022/05/08 08:06:58;;;;;;;8.27;1.80;;;10.80;99.90;;;;;;4920739;29;20119;-84
2022/05/08 08:09:23;;;;;;;6.95;2.10;;;11.00;99.90;;;;;;4903845;29;20564;-81
2022/05/08 08:11:53;;;;;;;8.27;1.85;;;11.20;99.90;;;;;;4920909;29;20087;-85
2022/05/08 08:14:20;;;;;;;9.40;1.95;;;11.30;99.90;;;;;;4904196;29;20377;-86
2022/05/08 08:16:46;;;;;;;9.15;2.17;;;11.50;99.90;;;;;;4921173;29;20456;-86
2022/05/08 08:19:12;;;;;;;8.73;1.83;;;11.60;99.90;;;;;;4921129;29;20044;-86
2022/05/08 08:21:38;;;;;;;11.90;2.00;;;11.70;99.90;;;;;;4888108;29;20058;-87
2022/05/08 08:24:04;;;;;;;8.05;1.83;;;11.90;99.90;;;;;;4903949;29;20399;-85
2022/05/08 08:26:29;;;;;;;6.78;1.67;;;12.10;99.90;;;;;;4903649;29;20124;-84
2022/05/08 08:28:55;;;;;;;8.77;2.30;;;12.30;99.90;;;;;;4903271;29;20036;-84
2022/05/08 08:31:20;;;;;;;7.13;1.83;;;12.50;99.90;;;;;;4903723;29;20036;-85
2022/05/08 08:33:47;;;;;;;12.55;2.13;;;12.70;99.90;;;;;;4903761;29;20044;-86
2022/05/08 08:36:13;;;;;;;6.75;1.90;;;12.70;99.90;;;;;;4903404;29;20136;-85
2022/05/08 08:38:40;;;;;;;9.35;1.88;;;12.70;99.90;;;;;;4903660;29;20055;-86
2022/05/08 08:41:07;;;;;;;12.15;2.85;;;12.70;99.90;;;;;;4903928;29;20052;-86
2022/05/08 08:49:12;;;;;;;7.38;2.55;;;12.80;99.90;;;;;;4903159;29;20059;-85
2022/05/08 08:51:38;;;;;;;10.35;2.20;;;12.90;99.90;;;;;;4903229;29;20477;-86
2022/05/08 08:54:04;;;;;;;6.45;1.70;;;13.10;99.90;;;;;;4903186;29;20556;-86
2022/05/08 08:56:31;;;;;;;8.02;1.60;;;13.30;99.90;;;;;;4908038;29;20047;-82
2022/05/08 08:58:56;;;;;;;11.68;2.00;;;13.50;99.90;;;;;;4938837;29;20043;-83
2022/05/08 09:01:22;;;;;;;9.68;2.45;;;13.80;99.90;;;;;;4921966;29;20094;-81
2022/05/08 09:03:48;;;;;;;6.70;1.38;;;14.00;99.90;;;;;;4921845;29;20078;-82
2022/05/08 09:06:13;;;;;;;6.20;1.50;;;14.10;99.90;;;;;;4920729;29;20052;-81
2022/05/08 09:08:39;;;;;;;9.18;1.73;;;14.20;99.90;;;;;;4938704;29;20039;-81
2022/05/08 09:11:05;;;;;;;8.38;1.80;;;14.30;99.90;;;;;;4921006;29;20043;-81
2022/05/08 09:13:31;;;;;;;9.27;2.17;;;14.40;99.90;;;;;;4937810;29;20065;-81
2022/05/08 09:16:03;;;;;;;6.93;1.52;;;14.40;99.90;;;;;;4938650;29;20048;-82
2022/05/08 09:18:29;;;;;;;8.93;1.80;;;14.50;99.90;;;;;;4937558;29;20215;-79
2022/05/08 09:21:54;;;;;;;7.93;1.75;;;14.60;99.90;;;;;;4921804;29;20091;-79
2022/05/08 09:23:42;;;;;;;8.63;1.60;;;14.80;99.90;;;;;;4938341;29;20052;-77
2022/05/08 09:26:08;;;;;;;6.95;2.05;;;15.00;99.90;;;;;;4921408;29;20123;-79
2022/05/08 09:28:43;;;;;;;10.13;2.33;;;15.30;99.90;;;;;;4920929;29;20126;-76
2022/05/08 09:31:16;;;;;;;6.33;1.60;;;15.50;99.90;;;;;;4939150;29;20051;-82
2022/05/08 09:33:43;;;;;;;6.85;1.63;;;15.80;99.90;;;;;;4905482;29;20063;-79
2022/05/08 09:36:22;;;;;;;8.18;1.63;;;15.80;99.90;;;;;;4921147;29;20036;-83
2022/05/08 09:38:55;;;;;;;7.53;1.55;;;15.50;99.90;;;;;;4921959;29;20048;-81
2022/05/08 09:41:28;;;;;;;7.20;1.73;;;15.40;99.90;;;;;;4921527;29;20143;-83
2022/05/08 09:43:55;;;;;;;9.68;1.40;;;15.40;99.90;;;;;;4905896;29;20209;-88
2022/05/08 09:46:22;;;;;;;12.18;1.95;;;15.60;99.90;;;;;;4921762;29;20040;-85
2022/05/08 09:48:48;;;;;;;7.63;1.90;;;15.80;99.90;;;;;;4921504;29;20035;-82
2022/05/08 09:51:15;;;;;;;7.72;2.30;;;15.90;99.90;;;;;;4940968;29;20518;-86
2022/05/08 09:53:43;;;;;;;7.75;1.60;;;16.10;99.90;;;;;;4930375;29;20047;-85
2022/05/08 09:56:11;;;;;;;6.97;1.70;;;16.20;99.90;;;;;;4947610;29;20090;-83
2022/05/08 09:58:41;;;;;;;12.65;1.73;;;16.20;99.90;;;;;;4943485;29;20360;-83
2022/05/08 10:01:07;;;;;;;8.13;1.80;;;16.30;99.90;;;;;;4933961;29;20079;-77
2022/05/08 10:03:36;;;;;;;7.13;1.50;;;16.50;99.90;;;;;;4938870;29;20044;-91
2022/05/08 10:06:02;;;;;;;7.88;1.67;;;16.40;99.90;;;;;;4921033;29;20377;-87
2022/05/08 10:08:36;;;;;;;6.78;1.63;;;16.60;99.90;;;;;;4921888;29;20424;-86
2022/05/08 10:14:05;;;;;;;10.02;1.90;;;16.80;99.90;;;;;;4918824;29;20047;-90
2022/05/08 10:16:46;;;;;;;8.60;1.67;;;16.90;99.90;;;;;;4918379;29;20473;-86
2022/05/08 10:19:24;;;;;;;9.10;2.38;;;17.00;99.90;;;;;;4901457;29;20048;-85
2022/05/08 10:21:55;;;;;;;8.20;1.60;;;17.00;99.90;;;;;;4885821;29;20127;-87
2022/05/08 10:24:28;;;;;;;6.22;1.73;;;17.10;99.90;;;;;;4931873;29;20080;-84
2022/05/08 10:27:19;;;;;;;8.50;1.80;;;17.20;99.90;;;;;;4936527;29;20610;-84
2022/05/08 10:29:48;;;;;;;8.82;1.70;;;17.20;99.90;;;;;;4920244;29;20042;-84
2022/05/08 10:32:34;;;;;;;9.15;2.10;;;17.30;99.90;;;;;;4919534;29;20106;-83
2022/05/08 10:35:17;;;;;;;9.90;1.80;;;17.60;99.90;;;;;;4903535;29;20582;-84
2022/05/08 10:37:46;;;;;;;10.80;1.92;;;17.70;99.90;;;;;;4919620;29;20416;-86
2022/05/08 10:40:23;;;;;;;6.20;1.60;;;17.70;99.90;;;;;;4903596;29;20063;-81
2022/05/08 10:42:50;;;;;;;10.45;1.88;;;17.80;99.90;;;;;;4919497;29;20460;-85
2022/05/08 10:45:31;;;;;;;7.47;1.77;;;17.80;99.90;;;;;;4919265;29;20082;-83
2022/05/08 10:48:08;;;;;;;7.57;1.50;;;17.80;99.90;;;;;;4919503;29;20123;-83
2022/05/08 10:50:34;;;;;;;8.10;2.00;;;17.60;99.90;;;;;;4920573;29;20480;-82
2022/05/08 10:53:00;;;;;;;8.70;2.10;;;17.60;99.90;;;;;;4920238;29;20091;-82
2022/05/08 10:55:29;;;;;;;9.23;1.90;;;17.70;99.90;;;;;;4905364;29;20043;-84
2022/05/08 10:57:57;;;;;;;8.43;1.65;;;17.80;99.90;;;;;;4905240;29;20055;-83
2022/05/08 11:00:26;;;;;;;9.88;1.90;;;18.00;99.90;;;;;;4906358;29;20150;-85
2022/05/08 11:02:56;;;;;;;9.95;2.60;;;17.90;99.30;;;;;;4940238;29;20050;-84
2022/05/08 11:05:24;;;;;;;12.48;2.00;;;18.10;99.70;;;;;;4906820;29;20374;-85
2022/05/08 11:07:58;;;;;;;8.60;1.80;;;18.20;98.90;;;;;;4937639;29;20599;-87
2022/05/08 11:10:26;;;;;;;8.60;1.50;;;18.40;98.80;;;;;;4937429;29;20044;-86
2022/05/08 11:13:04;;;;;;;5.88;1.70;;;18.40;98.30;;;;;;4920387;29;20043;-86
2022/05/08 11:15:42;;;;;;;11.18;2.30;;;18.50;98.40;;;;;;4920109;29;20047;-85
2022/05/08 11:18:14;;;;;;;7.53;1.98;;;18.60;98.40;;;;;;4922119;29;20052;-86
2022/05/08 11:21:00;;;;;;;9.77;2.55;;;18.70;98.00;;;;;;4905767;29;20083;-87
2022/05/08 11:23:33;;;;;;;10.27;2.40;;;18.90;98.00;;;;;;4919926;29;20059;-83
2022/05/08 11:26:00;;;;;;;7.65;1.92;;;18.90;97.50;;;;;;4904298;29;20102;-87
2022/05/08 11:28:27;;;;;;;6.38;1.60;;;19.10;97.20;;;;;;4938136;29;20050;-86
2022/05/08 11:30:55;;;;;;;7.32;2.70;;;19.20;96.70;;;;;;4907500;29;20043;-85
2022/05/08 11:36:34;;;;;;;7.40;1.80;;;19.40;94.70;;;;;;4917701;29;20043;-81
2022/05/08 11:39:05;;;;;;;6.32;1.77;;;19.40;94.90;;;;;;4922744;29;20055;-85
2022/05/08 11:41:36;;;;;;;9.98;1.42;;;19.30;94.30;;;;;;4939317;29;20412;-85
2022/05/08 11:44:25;;;;;;;9.52;1.77;;;19.40;94.30;;;;;;4954727;29;20039;-86
2022/05/08 11:46:56;;;;;;;9.45;2.60;;;19.40;93.60;;;;;;4934721;29;20036;-87
2022/05/08 11:49:30;;;;;;;8.75;1.75;;;19.30;93.00;;;;;;4908217;29;20119;-87
2022/05/08 11:52:04;;;;;;;7.00;1.60;;;19.30;93.10;;;;;;4941701;29;20114;-88
2022/05/08 11:54:32;;;;;;;9.90;2.13;;;19.40;93.40;;;;;;4908637;29;20050;-86
2022/05/08 11:57:21;;;;;;;10.82;1.52;;;19.50;93.10;;;;;;4910040;29;20048;-88
2022/05/08 11:59:52;;;;;;;6.30;1.73;;;19.70;93.10;;;;;;4923162;29;20051;-87
2022/05/08 12:02:30;;;;;;;10.52;2.10;;;19.90;92.70;;;;;;4907424;29;20171;-88
2022/05/08 12:05:05;;;;;;;8.05;1.90;;;20.00;91.90;;;;;;4923306;29;20039;-87
2022/05/08 12:07:41;;;;;;;9.07;1.85;;;19.90;91.50;;;;;;4909138;29;20091;-87
2022/05/08 12:10:07;;;;;;;10.63;2.63;;;19.90;91.60;;;;;;4909405;29;20098;-88
2022/05/08 12:12:35;;;;;;;11.02;2.40;;;20.00;92.10;;;;;;4908340;29;20062;-87
2022/05/08 12:15:22;;;;;;;8.65;1.73;;;20.20;91.90;;;;;;4923315;29;20039;-87
2022/05/08 12:17:49;;;;;;;7.93;1.98;;;20.40;91.00;;;;;;4907761;29;20068;-88
2022/05/08 12:20:26;;;;;;;9.05;2.30;;;20.40;91.00;;;;;;4923516;29;20043;-89
2022/05/08 12:23:00;;;;;;;7.72;1.80;;;20.40;90.80;;;;;;4923665;29;20071;-91
2022/05/08 12:25:30;;;;;;;11.00;2.10;;;20.60;88.60;;;;;;4906926;29;20032;-90
2022/05/08 12:27:56;;;;;;;8.75;1.85;;;20.80;87.70;;;;;;4923122;29;20039;-87
2022/05/08 12:30:27;;;;;;;10.57;2.42;;;20.80;87.70;;;;;;4923104;29;20044;-89
2022/05/08 12:32:53;;;;;;;9.32;1.80;;;20.90;86.90;;;;;;4907156;29;20083;-88
2022/05/08 12:35:19;;;;;;;8.38;1.98;;;20.80;86.20;;;;;;4921936;29;20500;-88
2022/05/08 12:38:24;;;;;;;6.22;1.80;;;20.80;84.00;;;;;;4922839;29;20472;-89
2022/05/08 12:40:52;;;;;;;7.20;1.75;;;20.70;83.90;;;;;;4903914;29;20126;-89
2022/05/08 12:43:17;;;;;;;7.90;1.88;;;20.70;84.90;;;;;;4907848;29;20123;-89
2022/05/08 12:45:52;;;;;;;11.50;2.45;;;20.80;83.10;;;;;;4923376;29;20559;-86
2022/05/08 12:48:49;;;;;;;9.18;1.92;;;20.70;81.90;;;;;;4924056;29;20110;-86
2022/05/08 12:51:35;;;;;;;6.53;1.90;;;20.70;82.80;;;;;;4925268;29;20484;-90
2022/05/08 12:54:03;;;;;;;13.25;2.38;;;20.80;81.30;;;;;;4940602;29;20051;-88
2022/05/08 12:56:35;;;;;;;10.18;1.90;;;20.90;81.10;;;;;;4923539;29;20155;-89
2022/05/08 13:02:20;;;;;;;9.00;1.80;;;20.90;78.90;;;;;;4939357;29;20106;-88
2022/05/08 13:04:48;;;;;;;10.10;1.88;;;20.90;78.90;;;;;;4922907;29;20044;-88
2022/05/08 13:07:17;;;;;;;5.13;1.67;;;20.90;78.90;;;;;;4907514;29;20050;-87
2022/05/08 13:09:43;;;;;;;9.48;1.60;;;21.00;78.80;;;;;;4923556;29;20046;-90
2022/05/08 13:12:09;;;;;;;6.35;1.75;;;21.00;78.00;;;;;;4908203;29;20475;-89
2022/05/08 13:14:46;;;;;;;10.85;2.40;;;21.00;77.50;;;;;;4906402;29;20048;-87
2022/05/08 13:17:15;;;;;;;9.60;1.60;;;21.20;79.00;;;;;;4923255;29;20043;-88
2022/05/08 13:23:04;;;;;;;9.68;1.60;;;21.50;74.40;;;;;;4902165;29;20532;-89
2022/05/08 13:26:21;;;;;;;6.82;2.17;;;21.50;73.60;;;;;;4954479;29;20043;-88
2022/05/08 13:29:21;;;;;;;7.47;1.92;;;21.50;72.60;;;;;;4922956;29;20464;-89
2022/05/08 13:31:51;;;;;;;7.13;1.95;;;21.60;74.40;;;;;;4882800;29;20108;-90
2022/05/08 13:34:41;;;;;;;;;;;;;;;;;;;;;
2022/05/08 13:37:18;;;;;;;13.75;2.30;;;21.60;70.60;;;;;;4901016;29;20041;-90
2022/05/08 13:40:12;;;;;;;8.63;2.33;;;21.70;71.40;;;;;;4884485;29;20088;-86
2022/05/08 13:49:44;;;;;;;7.35;1.88;;;21.80;70.70;;;;;;4862326;29;20037;-87
2022/05/08 14:15:11;;;;;;;8.07;2.03;;;21.70;64.50;;;;;;4976065;28;20047;-88
2022/05/08 14:17:44;;;;;;;7.40;1.60;;;21.60;64.40;;;;;;4960869;28;20049;-88
2022/05/08 14:37:10;;;;;;;9.80;2.15;;;22.00;64.00;;;;;;5447304;23;20070;-88
2022/05/08 14:45:18;;;;;;;;;;;;;;;;;;;;;
2022/05/08 15:22:14;;;;;;;10.90;1.73;;;21.50;64.70;;;;;;4955406;28;20063;-87
2022/05/08 15:29:03;;;;;;;7.22;1.80;;;21.70;64.60;;;;;;4841790;29;20045;-88
2022/05/08 15:36:03;;;;;;;4.72;1.30;;;21.70;64.20;;;;;;4880813;29;20059;-86
2022/05/08 15:38:30;;;;;;;5.28;1.70;;;21.70;63.30;;;;;;4881411;29;20089;-83
2022/05/08 15:40:57;;;;;;;9.02;1.95;;;21.80;63.20;;;;;;4897666;29;20512;-89
2022/05/08 15:43:23;;;;;;;10.18;1.85;;;21.80;63.80;;;;;;4866368;29;20083;-90
2022/05/08 15:45:49;;;;;;;7.10;1.88;;;21.70;62.70;;;;;;4928893;28;20038;-87
2022/05/08 15:48:15;;;;;;;9.80;1.85;;;21.60;64.00;;;;;;4957725;28;20085;-85
2022/05/08 15:50:42;;;;;;;7.55;1.75;;;21.40;64.90;;;;;;4957693;28;20042;-87
2022/05/08 15:53:08;;;;;;;6.82;2.00;;;21.40;65.50;;;;;;4957816;28;20487;-88
2022/05/08 15:55:33;;;;;;;7.25;1.98;;;21.30;64.40;;;;;;4957869;28;20463;-87
2022/05/08 15:57:59;;;;;;;9.15;2.00;;;21.30;64.80;;;;;;4957953;28;20039;-86
2022/05/08 16:00:26;;;;;;;7.93;1.77;;;21.40;65.10;;;;;;4957319;28;20479;-87
2022/05/08 16:02:52;;;;;;;7.53;1.80;;;21.20;64.50;;;;;;4974558;28;20062;-89
2022/05/08 16:05:18;;;;;;;9.50;1.65;;;21.20;65.00;;;;;;4941421;28;20039;-87
2022/05/08 16:07:45;;;;;;;9.00;1.83;;;21.10;65.00;;;;;;4941582;28;20210;-88
2022/05/08 16:10:12;;;;;;;10.38;2.15;;;21.20;64.30;;;;;;4957099;28;20047;-88
2022/05/08 16:23:57;;;;;;;10.85;2.40;;;20.80;65.10;;;;;;4902272;29;20056;-88
2022/05/08 16:26:23;;;;;;;10.65;2.15;;;20.80;65.20;;;;;;4921990;28;20455;-88
2022/05/08 16:28:49;;;;;;;7.40;1.85;;;20.60;65.20;;;;;;4945637;28;20054;-83
2022/05/08 16:31:17;;;;;;;8.13;2.20;;;20.60;65.20;;;;;;4964799;28;20403;-82
2022/05/08 16:33:45;;;;;;;9.40;1.88;;;20.50;65.10;;;;;;4979410;28;20518;-82
2022/05/08 16:36:10;;;;;;;6.43;1.83;;;20.40;66.20;;;;;;4963560;28;20047;-81
2022/05/08 16:38:36;;;;;;;6.93;1.80;;;20.30;66.60;;;;;;4967567;28;20047;-82
2022/05/08 16:41:02;;;;;;;7.68;2.08;;;20.40;67.20;;;;;;4968855;28;20110;-85
2022/05/08 16:43:28;;;;;;;5.75;1.67;;;20.40;66.10;;;;;;4974017;28;20043;-84
2022/05/08 16:45:54;;;;;;;7.63;1.70;;;20.30;65.70;;;;;;4966366;28;20042;-86
2022/05/08 16:48:20;;;;;;;11.23;2.03;;;20.20;66.30;;;;;;4967742;28;20030;-85
2022/05/08 16:50:46;;;;;;;8.32;1.70;;;20.00;66.60;;;;;;4956942;28;20042;-86
2022/05/08 16:53:12;;;;;;;10.32;2.00;;;19.80;66.60;;;;;;4993134;28;20050;-85
2022/05/08 16:55:38;;;;;;;7.93;1.92;;;19.70;67.00;;;;;;4973559;28;20094;-85
2022/05/08 16:58:04;;;;;;;11.20;2.08;;;19.50;67.30;;;;;;4964412;28;20521;-86
2022/05/08 17:00:31;;;;;;;11.05;2.50;;;19.40;67.70;;;;;;4960788;28;20494;-86
2022/05/08 17:02:56;;;;;;;7.13;1.80;;;19.50;68.70;;;;;;4960070;28;20066;-85
2022/05/08 17:05:22;;;;;;;7.55;1.85;;;19.50;68.20;;;;;;4959708;28;20240;-85
2022/05/08 17:07:48;;;;;;;9.98;2.10;;;19.30;68.10;;;;;;4943957;28;20488;-86
2022/05/08 17:10:19;;;;;;;7.53;2.10;;;19.10;69.40;;;;;;4943312;28;20537;-84
2022/05/08 17:12:45;;;;;;;6.45;1.50;;;19.00;69.20;;;;;;4977020;28;20116;-83
2022/05/08 17:15:11;;;;;;;9.77;1.80;;;18.80;69.60;;;;;;4959719;28;20509;-84
2022/05/08 17:17:37;;;;;;;9.02;1.90;;;18.80;70.20;;;;;;4959688;28;20043;-84
2022/05/08 17:20:03;;;;;;;7.68;2.22;;;18.70;70.70;;;;;;4960625;28;20035;-84
2022/05/08 17:22:30;;;;;;;7.57;2.05;;;18.50;71.00;;;;;;4959390;28;20459;-83
2022/05/08 17:24:59;;;;;;;7.43;2.60;;;18.50;71.10;;;;;;4943715;28;20074;-84
2022/05/08 17:30:14;;;;;;;8.10;2.00;;;18.50;71.50;;;;;;4959427;28;20051;-85
2022/05/08 17:32:40;;;;;;;6.30;1.80;;;18.30;71.20;;;;;;4943373;28;20057;-83
2022/05/08 17:35:07;;;;;;;8.85;1.80;;;18.10;72.20;;;;;;4960073;28;20043;-83
2022/05/08 17:37:33;;;;;;;13.30;2.67;;;18.00;72.60;;;;;;4959431;28;20046;-84
2022/05/08 17:39:59;;;;;;;8.20;1.70;;;17.90;73.00;;;;;;4977061;28;20047;-85
2022/05/08 17:42:24;;;;;;;10.57;2.33;;;17.80;73.60;;;;;;4958377;28;20125;-83
2022/05/08 17:44:50;;;;;;;7.88;1.73;;;17.80;73.80;;;;;;4942726;28;20035;-84
2022/05/08 17:47:16;;;;;;;10.60;2.10;;;17.70;74.00;;;;;;4976489;28;20065;-83
2022/05/08 17:49:43;;;;;;;9.35;2.42;;;17.70;73.60;;;;;;4942730;28;20082;-84
2022/05/08 17:52:09;;;;;;;5.13;1.50;;;17.80;73.70;;;;;;4959562;28;20081;-84
2022/05/08 17:54:35;;;;;;;8.88;2.38;;;17.50;74.10;;;;;;4943573;28;20472;-83
2022/05/08 17:57:01;;;;;;;6.50;1.60;;;17.40;75.00;;;;;;4959433;28;20376;-83
2022/05/08 17:59:26;;;;;;;9.35;1.83;;;17.20;76.00;;;;;;4942630;28;20046;-83
2022/05/08 18:05:53;;;;;;;7.85;1.80;;;17.10;76.90;;;;;;4942654;28;20046;-84
2022/05/08 18:07:22;;;;;;;8.17;1.60;;;16.80;78.50;;;;;;4975893;28;20042;-83
2022/05/08 18:09:48;;;;;;;8.50;2.10;;;16.70;79.70;;;;;;4959455;28;20070;-84
2022/05/08 18:12:16;;;;;;;13.80;2.67;;;16.60;80.30;;;;;;4942600;28;20407;-84
2022/05/08 18:14:44;;;;;;;8.93;2.05;;;16.40;81.50;;;;;;4959340;28;20360;-84
2022/05/08 18:17:16;;;;;;;13.32;1.95;;;16.30;81.80;;;;;;4942046;28;20050;-83
2022/05/08 18:19:42;;;;;;;11.70;2.33;;;16.10;82.30;;;;;;4957777;28;20035;-83
2022/05/08 18:22:07;;;;;;;10.82;1.98;;;15.90;83.20;;;;;;4975706;28;20042;-84
2022/05/08 18:24:33;;;;;;;12.02;2.35;;;15.70;84.70;;;;;;4942954;28;20050;-84
2022/05/08 18:26:59;;;;;;;9.23;2.10;;;15.50;85.70;;;;;;4975684;28;20042;-83
2022/05/08 18:29:25;;;;;;;11.20;3.28;;;15.30;86.50;;;;;;4958119;28;20050;-84
2022/05/08 18:31:50;;;;;;;12.07;2.45;;;15.20;87.60;;;;;;4957834;28;20419;-84
2022/05/08 18:34:16;;;;;;;7.80;1.80;;;15.10;89.60;;;;;;4942450;28;20047;-85
2022/05/08 18:36:42;;;;;;;10.65;1.95;;;15.00;90.60;;;;;;4958277;28;20035;-83
2022/05/08 18:39:07;;;;;;;13.70;2.35;;;15.00;91.60;;;;;;4957810;28;20074;-83
2022/05/08 18:41:33;;;;;;;8.27;1.90;;;14.90;92.50;;;;;;4941845;28;20043;-85
2022/05/08 18:43:59;;;;;;;10.65;1.83;;;14.80;93.10;;;;;;4975511;28;20085;-85
2022/05/08 18:46:26;;;;;;;12.57;1.88;;;14.60;93.80;;;;;;4942277;28;20039;-84
2022/05/08 18:51:37;;;;;;;11.25;2.05;;;14.40;95.60;;;;;;4957969;28;20078;-84
2022/05/08 18:54:04;;;;;;;11.05;2.25;;;14.30;96.50;;;;;;4942203;28;20212;-85
2022/05/08 18:56:31;;;;;;;7.85;1.90;;;14.20;97.70;;;;;;4941716;28;20130;-84
2022/05/08 18:58:57;;;;;;;13.85;2.13;;;14.10;98.40;;;;;;4974999;28;20505;-85
2022/05/08 19:01:22;;;;;;;8.43;2.15;;;14.00;99.20;;;;;;4958324;28;20427;-84
2022/05/08 19:03:48;;;;;;;8.98;2.28;;;13.90;99.90;;;;;;4957656;28;20050;-84
2022/05/08 19:06:15;;;;;;;9.30;2.55;;;13.80;99.90;;;;;;4957917;28;20043;-83
2022/05/08 19:08:41;;;;;;;7.90;2.30;;;13.80;99.90;;;;;;4957928;28;20046;-84
2022/05/08 19:11:06;;;;;;;12.25;2.33;;;13.60;99.90;;;;;;4975082;28;20430;-86
2022/05/08 19:13:34;;;;;;;9.25;2.15;;;13.60;99.90;;;;;;4937823;29;20078;-86
2022/05/08 19:16:00;;;;;;;8.68;2.13;;;13.40;99.90;;;;;;4955612;28;20396;-79
2022/05/08 19:18:26;;;;;;;11.40;2.67;;;13.30;99.90;;;;;;4956096;29;20067;-86